Time;durP1;ratioP1;P1;durP2;ratioP2;P2;SDS_P1;SDS_P2;PMS_P1;PMS_P2;Temp;Humidity;BMP_temperature;BMP_pressure;BME280_temperature;BME280_humidity;BME280_pressure;Samples;Min_cycle;Max_cycle;Signal;HPM_P1;HPM_P2
2023/09/24 00:00:20;;;;;;;3.67;3.10;;;11.70;99.90;;;-141.84;79.32;19962.19;4986890;28;20235;-61
2023/09/24 00:02:49;;;;;;;3.30;2.90;;;11.90;99.90;;;-141.84;79.49;19956.09;4987113;28;20714;-61
2023/09/24 00:05:18;;;;;;;4.37;3.30;;;11.80;99.90;;;-141.84;79.42;19931.72;4986571;28;20716;-61
2023/09/24 00:07:48;;;;;;;5.00;3.40;;;11.80;99.90;;;-141.84;78.61;19923.59;4986403;28;20231;-61
2023/09/24 00:10:16;;;;;;;3.90;3.30;;;11.80;99.90;;;-141.84;78.36;19907.31;4986610;28;20226;-62
2023/09/24 00:12:46;;;;;;;5.47;3.00;;;11.80;99.90;;;-141.84;78.62;19911.41;4986240;28;20250;-62
2023/09/24 00:15:15;;;;;;;4.17;3.07;;;11.80;99.90;;;-141.84;78.83;19950.00;4986981;28;20286;-61
2023/09/24 00:17:44;;;;;;;3.97;2.80;;;11.80;99.90;;;-141.84;78.80;19939.84;4986741;28;20254;-62
2023/09/24 00:20:15;;;;;;;4.23;3.20;;;11.80;99.90;;;-141.84;79.10;19915.47;5003034;28;20726;-61
2023/09/24 00:22:44;;;;;;;5.37;3.10;;;11.80;99.90;;;-141.84;78.78;19921.56;4999793;28;20234;-61
2023/09/24 00:25:14;;;;;;;4.07;3.30;;;11.80;99.90;;;-141.84;78.64;19935.78;5005963;28;20222;-61
2023/09/24 00:27:42;;;;;;;4.00;3.40;;;11.80;99.90;;;-141.84;77.68;19929.69;4994890;28;20289;-61
2023/09/24 00:30:13;;;;;;;3.77;3.00;;;11.90;99.90;;;-141.84;77.34;19958.13;4986193;28;20714;-61
2023/09/24 00:32:41;;;;;;;4.53;3.37;;;11.90;99.90;;;-141.84;76.86;19945.94;4978638;28;20330;-62
2023/09/24 00:35:09;;;;;;;4.97;3.23;;;12.00;99.90;;;-141.84;77.10;20000.81;4985969;28;20727;-62
2023/09/24 00:37:37;;;;;;;4.90;3.43;;;12.00;99.90;;;-141.84;77.30;19954.06;4986451;28;20233;-61
2023/09/24 00:40:10;;;;;;;3.87;3.00;;;12.00;99.90;;;-141.84;77.71;19903.25;4986089;28;20302;-61
2023/09/24 00:42:40;;;;;;;4.37;3.43;;;12.00;99.90;;;-141.84;77.94;19956.09;4978771;28;20211;-62
2023/09/24 00:45:11;;;;;;;3.80;2.80;;;12.00;99.90;;;-141.84;78.02;19962.19;4986250;28;20651;-61
2023/09/24 00:47:45;;;;;;;3.70;3.17;;;11.90;99.90;;;-141.84;75.98;19988.63;4986234;28;20235;-61
2023/09/24 00:50:15;;;;;;;4.20;2.93;;;11.90;99.90;;;-141.84;77.17;19937.81;4991138;28;20239;-62
2023/09/24 00:52:46;;;;;;;3.40;3.07;;;11.90;99.90;;;-141.84;77.83;19923.59;4978944;28;20273;-61
2023/09/24 00:55:17;;;;;;;4.70;3.50;;;11.90;99.90;;;-141.84;78.13;19903.25;4985920;28;20285;-61
2023/09/24 00:57:50;;;;;;;4.60;2.93;;;11.80;99.90;;;-141.84;77.43;19945.94;4986430;28;20684;-62
2023/09/24 01:00:22;;;;;;;5.63;3.00;;;11.80;99.90;;;-141.84;77.69;19937.81;4984029;28;20239;-61
2023/09/24 01:02:52;;;;;;;5.00;3.30;;;11.60;99.90;;;-141.84;78.06;19903.25;4986187;28;20230;-61
2023/09/24 01:05:20;;;;;;;5.77;3.40;;;11.80;99.90;;;-141.84;78.13;19950.00;4985440;28;20354;-61
2023/09/24 01:07:48;;;;;;;5.57;4.00;;;11.80;99.90;;;-141.84;77.56;19935.78;4985259;28;20794;-62
2023/09/24 01:10:20;;;;;;;5.30;3.30;;;11.80;99.90;;;-141.84;77.83;19913.44;4985728;28;20779;-61
2023/09/24 01:12:58;;;;;;;3.83;3.17;;;11.80;99.90;;;-141.84;77.58;19935.78;4986512;28;20211;-61
2023/09/24 01:15:28;;;;;;;3.50;3.07;;;11.80;99.90;;;-141.84;76.41;19956.09;4985533;28;20230;-61
2023/09/24 01:17:57;;;;;;;3.90;3.40;;;11.90;99.90;;;-141.84;77.37;19917.50;4985834;28;20227;-62
2023/09/24 01:20:28;;;;;;;6.07;3.90;;;11.90;99.90;;;-141.84;76.55;19945.94;4996517;28;20245;-61
2023/09/24 01:22:59;;;;;;;5.90;3.13;;;11.80;99.90;;;-141.84;76.88;19954.06;5002089;28;20318;-61
2023/09/24 01:25:27;;;;;;;4.03;3.63;;;11.80;99.90;;;-141.84;76.76;19978.47;4985318;28;20282;-60
2023/09/24 01:27:55;;;;;;;3.90;3.50;;;11.80;99.90;;;-141.84;77.03;19925.63;4986258;28;20213;-61
2023/09/24 01:30:24;;;;;;;4.63;3.97;;;11.80;99.90;;;-141.84;76.74;19933.75;4977572;28;20239;-62
2023/09/24 01:32:52;;;;;;;3.80;3.50;;;11.80;99.90;;;-141.84;77.29;19947.97;4985763;28;20665;-61
2023/09/24 01:35:26;;;;;;;4.97;3.57;;;11.80;99.90;;;-141.84;77.67;19884.97;4985421;28;20227;-62
2023/09/24 01:37:59;;;;;;;4.80;3.93;;;11.70;99.90;;;-141.84;77.09;19935.78;4985555;28;20243;-61
2023/09/24 01:40:33;;;;;;;5.77;4.20;;;11.80;99.90;;;-141.84;77.46;19937.81;4977581;28;20274;-62
2023/09/24 01:43:05;;;;;;;5.73;4.50;;;11.80;99.90;;;-141.84;77.51;19923.59;4985932;28;20203;-61
2023/09/24 01:45:34;;;;;;;4.70;4.00;;;11.80;99.90;;;-141.84;77.82;19923.59;4983941;28;20227;-62
2023/09/24 01:48:03;;;;;;;5.20;4.37;;;11.80;99.90;;;-141.84;77.89;19947.97;4984843;28;20763;-61
2023/09/24 01:50:33;;;;;;;4.63;3.87;;;11.80;99.90;;;-141.84;76.81;19988.63;4996434;28;20223;-61
2023/09/24 01:53:04;;;;;;;4.47;3.83;;;11.90;99.90;;;-141.84;75.61;20008.94;5004743;28;20246;-62
2023/09/24 01:55:33;;;;;;;6.63;4.20;;;11.90;99.90;;;-141.84;76.19;19968.31;5004567;28;20257;-63
2023/09/24 01:58:03;;;;;;;4.80;3.80;;;11.90;99.90;;;-141.84;76.72;19937.81;5004457;28;20230;-62
2023/09/24 02:00:31;;;;;;;4.30;3.90;;;11.90;99.90;;;-141.84;77.10;19952.03;4996508;28;20246;-62
2023/09/24 02:03:06;;;;;;;4.43;3.57;;;11.80;99.90;;;-141.84;77.66;19943.91;5004140;28;20584;-61
2023/09/24 02:05:36;;;;;;;4.70;4.27;;;11.70;99.90;;;-141.84;78.46;19925.63;4990125;28;20234;-61
2023/09/24 02:08:10;;;;;;;4.43;3.73;;;11.70;99.90;;;-141.84;79.12;19909.34;4984843;28;20226;-62
2023/09/24 02:10:40;;;;;;;4.57;3.83;;;11.60;99.90;;;-141.84;79.26;19891.06;4976983;28;20714;-61
2023/09/24 02:13:10;;;;;;;4.30;3.90;;;11.60;99.90;;;-141.84;79.32;19911.41;4984775;28;20281;-62
2023/09/24 02:15:39;;;;;;;4.63;3.93;;;11.60;99.90;;;-141.84;79.88;19895.13;4984836;28;20211;-61
2023/09/24 02:18:09;;;;;;;4.37;3.97;;;11.50;99.90;;;-141.84;80.26;19884.97;4983958;28;20303;-62
2023/09/24 02:20:41;;;;;;;5.17;3.97;;;11.50;99.90;;;-141.84;80.40;19821.97;4971598;28;20235;-62
2023/09/24 02:23:11;;;;;;;4.57;4.03;;;11.40;99.90;;;-141.84;80.66;19832.13;4984608;28;20798;-62
2023/09/24 02:25:44;;;;;;;4.90;3.90;;;11.30;99.90;;;-141.84;80.96;19826.03;4984053;28;20242;-62
2023/09/24 02:28:13;;;;;;;4.87;3.60;;;11.30;99.90;;;-141.84;81.44;19801.66;4984093;28;20211;-61
2023/09/24 02:30:42;;;;;;;6.23;3.87;;;11.30;99.90;;;-141.84;81.77;19811.81;4976017;28;20211;-62
2023/09/24 02:33:10;;;;;;;4.27;3.87;;;11.20;99.90;;;-141.84;81.59;19834.16;4984543;28;20249;-61
2023/09/24 02:35:39;;;;;;;7.03;4.27;;;11.20;99.90;;;-141.84;81.96;19826.03;4984100;28;20258;-62
2023/09/24 02:38:08;;;;;;;5.10;4.00;;;11.20;99.90;;;-141.84;82.28;19779.28;4984222;28;20225;-62
2023/09/24 02:40:38;;;;;;;5.80;4.07;;;11.10;99.90;;;-141.84;82.30;19803.69;4975998;28;20769;-62
2023/09/24 02:43:07;;;;;;;4.47;4.00;;;11.10;99.90;;;-141.84;82.12;19811.81;4984413;28;20219;-62
2023/09/24 02:45:35;;;;;;;5.50;3.87;;;11.10;99.90;;;-141.84;81.12;19866.69;4984156;28;20254;-61
2023/09/24 02:48:06;;;;;;;3.60;3.27;;;11.20;99.90;;;-141.84;80.99;19866.69;4983908;28;20815;-61
2023/09/24 02:50:34;;;;;;;5.73;4.00;;;11.20;99.90;;;-141.84;81.62;19848.38;4994853;28;20310;-62
2023/09/24 02:53:04;;;;;;;5.83;3.93;;;11.30;99.90;;;-141.84;81.66;19830.09;5003630;28;20296;-62
2023/09/24 02:55:33;;;;;;;6.37;3.80;;;11.20;99.90;;;-141.84;81.77;19846.34;5003258;28;20226;-61
2023/09/24 02:58:04;;;;;;;4.27;3.87;;;11.20;99.90;;;-141.84;82.10;19791.47;5003598;28;20211;-63
2023/09/24 03:00:36;;;;;;;6.63;4.63;;;11.10;99.90;;;-141.84;82.16;19809.78;4996224;28;20280;-61
2023/09/24 03:03:05;;;;;;;4.70;4.20;;;11.10;99.90;;;-141.84;82.19;19832.13;5003584;28;20714;-62
2023/09/24 03:05:34;;;;;;;5.83;4.50;;;11.10;99.90;;;-141.84;82.12;19846.34;4988939;28;20245;-62
2023/09/24 03:08:05;;;;;;;5.40;4.60;;;11.10;99.90;;;-141.84;82.19;19805.72;4984163;28;20230;-62
2023/09/24 03:10:35;;;;;;;5.57;5.00;;;11.20;99.90;;;-141.84;82.35;19819.94;4976589;28;20234;-63
2023/09/24 03:13:05;;;;;;;6.53;5.20;;;11.20;99.90;;;-141.84;82.53;19797.59;4984673;28;20214;-63
2023/09/24 03:15:34;;;;;;;7.57;5.63;;;11.30;99.90;;;-141.84;81.98;19854.50;4983631;28;20458;-61
2023/09/24 03:18:03;;;;;;;6.30;5.70;;;11.40;99.90;;;-141.84;81.45;19821.97;4983477;28;20235;-61
2023/09/24 03:20:31;;;;;;;7.57;5.83;;;11.40;99.90;;;-141.84;80.78;19874.81;4995838;28;20237;-61
2023/09/24 03:23:03;;;;;;;7.70;5.80;;;11.50;99.90;;;-141.84;80.39;19893.09;5003182;28;20234;-62
2023/09/24 03:25:32;;;;;;;7.43;5.47;;;11.60;99.90;;;-141.84;78.96;19941.88;4964261;28;20622;-61
2023/09/24 03:28:01;;;;;;;7.83;5.80;;;11.60;99.90;;;-141.84;78.76;19901.22;4964359;28;20613;-62
2023/09/24 03:30:32;;;;;;;5.83;5.10;;;11.70;99.90;;;-141.84;78.45;19925.63;4967364;28;20259;-63
2023/09/24 03:33:01;;;;;;;5.13;4.63;;;11.70;99.90;;;-141.84;78.22;19927.66;4982959;28;20234;-62
2023/09/24 03:35:29;;;;;;;6.33;4.77;;;11.70;99.90;;;-141.84;78.59;19939.84;4983730;28;20326;-61
2023/09/24 03:37:58;;;;;;;5.60;4.60;;;11.80;99.90;;;-141.84;78.55;19921.56;4983585;28;20245;-64
2023/09/24 03:40:28;;;;;;;4.90;4.40;;;11.70;99.90;;;-141.84;78.47;19884.97;4975767;28;20250;-61
2023/09/24 03:42:57;;;;;;;5.07;4.40;;;11.80;99.90;;;-141.84;77.90;19923.59;4983826;28;20351;-62
2023/09/24 03:45:26;;;;;;;6.47;4.47;;;11.80;99.90;;;-141.84;77.21;19927.66;4982804;28;20235;-62
2023/09/24 03:47:56;;;;;;;5.53;4.00;;;11.80;99.90;;;-141.84;77.56;19929.69;4983378;28;20242;-61
2023/09/24 03:50:26;;;;;;;5.40;4.43;;;11.90;99.90;;;-141.84;76.88;19943.91;4994460;28;20300;-61
2023/09/24 03:52:56;;;;;;;5.03;4.13;;;11.90;99.90;;;-141.84;76.95;19947.97;5002721;28;20710;-61
2023/09/24 03:55:24;;;;;;;4.93;4.00;;;11.90;99.90;;;-141.84;77.51;19935.78;5000941;28;21584;-61
2023/09/24 03:57:53;;;;;;;4.43;3.70;;;11.90;99.90;;;-141.84;77.43;19939.84;4983263;28;20207;-61
2023/09/24 04:00:21;;;;;;;5.13;4.27;;;12.00;99.90;;;-141.84;77.34;19968.31;4975931;28;20235;-61
2023/09/24 04:02:51;;;;;;;4.33;3.93;;;12.00;99.90;;;-141.84;77.34;19927.66;4982793;28;20242;-62
2023/09/24 04:05:23;;;;;;;6.40;4.17;;;12.00;99.90;;;-141.84;77.72;19950.00;4983192;28;20231;-62
2023/09/24 04:07:56;;;;;;;4.80;4.17;;;12.00;99.90;;;-141.84;78.00;19931.72;4983548;28;20243;-61
2023/09/24 04:10:27;;;;;;;5.23;4.50;;;12.00;99.90;;;-141.84;78.22;19960.16;4975615;28;20239;-62
2023/09/24 04:12:57;;;;;;;5.47;4.37;;;12.00;99.90;;;-141.84;77.84;19925.63;4982907;28;20211;-61
2023/09/24 04:15:28;;;;;;;4.37;3.97;;;12.00;99.90;;;-141.84;78.17;19939.84;4982824;28;20230;-61
2023/09/24 04:17:59;;;;;;;8.13;5.17;;;12.00;99.90;;;-141.84;77.95;19964.25;4982718;28;20235;-63
2023/09/24 04:20:33;;;;;;;6.87;4.67;;;12.10;99.90;;;-141.84;78.02;19982.53;4994175;28;20265;-62
2023/09/24 04:23:02;;;;;;;6.23;4.60;;;12.20;99.90;;;-141.84;78.15;19988.63;5002713;28;20303;-62
2023/09/24 04:25:30;;;;;;;6.20;4.73;;;12.20;99.90;;;-141.84;78.57;19978.47;5002243;28;20649;-61
2023/09/24 04:27:59;;;;;;;6.33;4.20;;;12.20;99.90;;;-141.84;78.89;19956.09;5003026;28;20206;-61
2023/09/24 04:30:28;;;;;;;5.20;4.43;;;12.20;99.90;;;-141.84;78.86;19966.28;4983708;28;20567;-61
2023/09/24 04:32:58;;;;;;;6.03;5.43;;;12.20;99.90;;;-141.84;79.10;19964.25;4983018;28;20235;-61
2023/09/24 04:35:27;;;;;;;9.20;6.10;;;12.20;99.90;;;-141.84;79.14;19941.88;4982578;28;20227;-62
2023/09/24 04:37:57;;;;;;;7.40;5.87;;;12.30;99.90;;;-141.84;79.33;19923.59;4982767;28;20752;-61
2023/09/24 04:40:26;;;;;;;7.30;6.27;;;12.20;99.90;;;-141.84;79.24;19972.38;4975921;28;20600;-61
2023/09/24 04:42:55;;;;;;;7.43;6.00;;;12.20;99.90;;;-141.84;78.99;19966.28;4985305;28;20229;-62
2023/09/24 04:45:23;;;;;;;9.30;6.90;;;12.30;99.90;;;-141.84;79.20;19988.63;4986320;28;20247;-62
2023/09/24 04:47:51;;;;;;;8.53;6.80;;;12.30;99.90;;;-141.84;79.00;19972.38;4986367;28;20231;-62
2023/09/24 04:50:23;;;;;;;8.60;7.33;;;12.30;99.90;;;-141.84;78.94;19996.75;4978672;28;20685;-61
2023/09/24 04:52:54;;;;;;;8.20;6.77;;;12.30;99.90;;;-141.84;78.67;19941.88;4986251;28;20250;-62
2023/09/24 04:55:25;;;;;;;8.43;7.13;;;12.40;99.90;;;-141.84;77.91;20000.81;4986455;28;20234;-61
2023/09/24 04:57:54;;;;;;;9.47;7.73;;;12.40;99.90;;;-141.84;77.59;19990.66;4986716;28;20242;-61
2023/09/24 05:00:22;;;;;;;8.77;6.97;;;12.40;99.90;;;-141.84;78.06;20000.81;4978872;28;20322;-63
2023/09/24 05:02:50;;;;;;;9.10;7.43;;;12.40;99.90;;;-141.84;78.61;19984.56;4986003;28;20227;-62
2023/09/24 05:05:19;;;;;;;9.07;7.27;;;12.40;99.90;;;-141.84;78.57;19972.38;4985899;28;20237;-61
2023/09/24 05:07:50;;;;;;;7.30;6.57;;;12.40;99.90;;;-141.84;79.12;19988.63;4985432;28;20270;-61
2023/09/24 05:10:18;;;;;;;7.07;6.03;;;12.40;99.90;;;-141.84;78.69;20015.03;4984626;28;20207;-61
2023/09/24 05:12:48;;;;;;;7.63;6.40;;;12.40;99.90;;;-141.84;78.80;19996.75;4983296;28;20302;-61
2023/09/24 05:15:16;;;;;;;8.10;7.13;;;12.50;99.90;;;-141.84;78.71;20021.16;4986048;28;20241;-61
2023/09/24 05:17:44;;;;;;;7.73;6.60;;;12.50;99.90;;;-141.84;78.80;20010.97;4985716;28;20262;-62
2023/09/24 05:20:15;;;;;;;8.90;6.30;;;12.60;99.90;;;-141.84;78.93;19998.78;4985647;28;20243;-61
2023/09/24 05:22:43;;;;;;;6.93;6.07;;;12.60;99.90;;;-141.84;78.61;20037.41;4980427;28;20266;-62
2023/09/24 05:25:12;;;;;;;9.05;6.65;;;12.70;99.90;;;-141.84;78.41;20065.84;4985583;28;20734;-60
2023/09/24 05:27:40;;;;;;;7.57;6.17;;;12.70;99.90;;;-141.84;77.61;20008.94;4986343;28;20294;-60
2023/09/24 05:30:10;;;;;;;7.53;5.88;;;12.80;99.90;;;-141.84;78.06;20010.97;4985347;28;20227;-61
2023/09/24 05:32:39;;;;;;;7.93;5.80;;;12.70;99.90;;;-141.84;78.25;20049.59;4958777;28;20821;-62
2023/09/24 05:35:08;;;;;;;8.05;5.68;;;12.70;99.90;;;-141.84;78.57;19994.72;4965634;28;20311;-62
2023/09/24 05:37:36;;;;;;;6.28;4.95;;;12.70;99.90;;;-141.84;78.41;19996.75;4966264;28;20311;-62
2023/09/24 05:40:05;;;;;;;9.57;5.27;;;12.70;99.90;;;-141.84;77.18;20053.66;4966471;28;20709;-64
2023/09/24 05:42:33;;;;;;;5.50;4.40;;;12.70;99.90;;;-141.84;75.70;20069.94;4968971;28;20297;-62
2023/09/24 05:45:02;;;;;;;5.30;4.00;;;12.90;99.90;;;-141.84;76.79;20078.06;4985653;28;20237;-62
2023/09/24 05:47:32;;;;;;;6.83;4.30;;;12.90;99.90;;;-141.84;76.65;20096.34;4984630;28;20602;-61
2023/09/24 05:50:02;;;;;;;4.40;3.70;;;12.90;99.90;;;-141.84;76.95;20074.00;4985122;28;20251;-62
2023/09/24 05:52:30;;;;;;;4.00;3.60;;;13.00;99.90;;;-141.84;76.92;20057.72;4977469;28;20285;-61
2023/09/24 05:54:59;;;;;;;4.40;3.60;;;12.90;99.90;;;-141.84;77.00;20120.75;4984827;28;20249;-61
2023/09/24 05:57:27;;;;;;;4.43;3.73;;;12.90;99.90;;;-141.84;76.02;20088.22;4985284;28;20238;-61
2023/09/24 05:59:56;;;;;;;4.80;3.45;;;13.00;99.90;;;-141.84;76.19;20090.25;4985036;28;20239;-62
2023/09/24 06:02:25;;;;;;;4.00;3.60;;;13.10;99.90;;;-141.84;75.96;20096.34;4977591;28;20295;-61
2023/09/24 06:04:55;;;;;;;4.32;3.50;;;13.20;99.90;;;-141.84;75.64;20116.66;4984553;28;20235;-61
2023/09/24 06:07:25;;;;;;;4.35;3.10;;;13.20;99.90;;;-141.84;74.61;20167.47;4985013;28;20313;-62
2023/09/24 06:09:53;;;;;;;4.15;3.20;;;13.30;99.90;;;-141.84;73.19;20228.47;4985488;28;20660;-64
2023/09/24 06:12:22;;;;;;;4.65;3.42;;;13.40;99.90;;;-141.84;73.72;20242.69;4977968;28;20267;-62
2023/09/24 06:14:50;;;;;;;6.00;3.47;;;13.50;99.90;;;-141.84;73.57;20220.34;4984606;28;20237;-61
2023/09/24 06:17:18;;;;;;;3.65;3.30;;;13.70;99.90;;;-141.84;73.58;20208.13;4984546;28;20281;-61
2023/09/24 06:19:47;;;;;;;3.65;3.35;;;13.70;99.90;;;-141.84;71.40;20342.28;4984323;28;20231;-60
2023/09/24 06:22:16;;;;;;;4.65;3.42;;;13.70;99.90;;;-141.84;71.03;20297.56;4984464;28;20306;-61
2023/09/24 06:24:44;;;;;;;5.38;3.55;;;13.80;99.90;;;-141.84;71.09;20277.25;4980447;28;20250;-62
2023/09/24 06:27:14;;;;;;;4.35;3.35;;;13.80;99.90;;;-141.84;72.28;20248.78;4984428;28;20619;-61
2023/09/24 06:29:42;;;;;;;5.47;3.60;;;13.80;99.90;;;-141.84;71.92;20256.91;4984378;28;20668;-62
2023/09/24 06:32:10;;;;;;;5.30;3.58;;;13.80;99.90;;;-141.84;72.59;20252.84;4984791;28;20227;-61
2023/09/24 06:34:38;;;;;;;6.07;3.45;;;13.80;99.90;;;-141.84;72.59;20265.03;4977534;28;20235;-61
2023/09/24 06:37:07;;;;;;;4.05;3.40;;;13.70;99.90;;;-141.84;72.07;20295.53;4984749;28;20246;-61
2023/09/24 06:39:36;;;;;;;4.25;3.25;;;13.70;99.90;;;-141.84;72.59;20297.56;4968713;28;20646;-62
2023/09/24 06:42:05;;;;;;;4.93;3.58;;;13.80;99.90;;;-141.84;72.94;20269.13;4965176;28;20759;-61
2023/09/24 06:44:33;;;;;;;5.35;3.55;;;13.80;99.90;;;-141.84;73.45;20242.69;4958089;28;20242;-62
2023/09/24 06:47:01;;;;;;;3.85;3.47;;;13.80;99.90;;;-141.84;73.29;20271.16;4964937;28;20227;-62
2023/09/24 06:49:29;;;;;;;5.65;4.00;;;13.80;99.90;;;-141.84;73.27;20232.53;4983959;28;20640;-62
2023/09/24 06:51:58;;;;;;;5.95;3.88;;;13.80;99.90;;;-141.84;72.11;20346.34;5004437;28;20207;-61
2023/09/24 06:54:26;;;;;;;4.18;3.70;;;13.90;99.90;;;-141.84;71.10;20370.75;4996735;28;20231;-61
2023/09/24 06:56:57;;;;;;;4.45;3.63;;;14.10;99.90;;;-141.84;71.67;20350.41;5003480;28;20284;-62
2023/09/24 06:59:25;;;;;;;4.95;3.60;;;14.10;99.90;;;-141.84;70.57;20376.84;5003435;28;20238;-61
2023/09/24 07:01:54;;;;;;;4.18;3.47;;;14.20;99.90;;;-141.84;71.45;20358.56;4989278;28;20227;-61
2023/09/24 07:04:23;;;;;;;5.53;3.88;;;14.20;99.90;;;-141.84;69.89;20382.94;4976277;28;20202;-61
2023/09/24 07:06:52;;;;;;;7.22;4.00;;;14.30;99.90;;;-141.84;70.74;20391.06;4984146;28;20683;-61
2023/09/24 07:09:20;;;;;;;4.30;3.78;;;14.30;99.90;;;-141.84;71.18;20356.50;4983552;28;20659;-61
2023/09/24 07:11:48;;;;;;;4.88;3.63;;;14.40;99.90;;;-141.84;70.32;20389.03;4983661;28;20321;-62
2023/09/24 07:14:19;;;;;;;4.25;3.85;;;14.40;99.90;;;-141.84;69.08;20460.19;4984001;28;20239;-61
2023/09/24 07:16:48;;;;;;;4.38;3.60;;;14.40;99.90;;;-141.84;68.36;20486.59;4983797;28;20227;-62
2023/09/24 07:19:19;;;;;;;5.63;3.63;;;14.70;99.90;;;-141.84;68.71;20472.38;4983303;28;20219;-62
2023/09/24 07:21:49;;;;;;;3.72;3.30;;;14.60;99.90;;;-141.84;68.71;20486.59;4983867;28;20249;-60
2023/09/24 07:24:17;;;;;;;6.45;3.92;;;14.70;99.90;;;-141.84;67.66;20527.25;4983850;28;20579;-62
2023/09/24 07:26:45;;;;;;;4.78;3.78;;;14.80;99.90;;;-141.84;67.13;20569.94;4983315;28;20259;-61
2023/09/24 07:29:14;;;;;;;4.15;3.35;;;15.00;99.90;;;-141.84;67.03;20576.03;4983627;28;20301;-62
2023/09/24 07:31:43;;;;;;;5.30;3.83;;;15.00;99.90;;;-141.84;66.21;20639.06;4983212;28;20233;-61
2023/09/24 07:34:11;;;;;;;6.63;3.85;;;15.20;99.90;;;-141.84;66.23;20630.94;4983068;28;20211;-63
2023/09/24 07:36:40;;;;;;;4.75;3.40;;;15.30;99.90;;;-141.84;65.69;20663.47;4976299;28;20211;-62
2023/09/24 07:39:24;;;;;;;4.13;3.60;;;15.40;99.90;;;-141.84;65.98;20671.59;4968775;28;20247;-62
2023/09/24 07:41:53;;;;;;;4.85;3.75;;;15.60;99.90;;;-141.84;65.36;20714.28;4964399;28;20263;-62
2023/09/24 07:44:21;;;;;;;6.05;3.78;;;15.80;99.90;;;-141.84;65.29;20732.56;4957548;28;20240;-61
2023/09/24 07:46:50;;;;;;;4.75;3.70;;;15.90;99.90;;;-141.84;63.96;20805.75;4964119;28;20319;-62
2023/09/24 07:49:19;;;;;;;4.05;3.67;;;16.00;99.90;;;-141.84;63.52;20805.75;4972271;28;20322;-61
2023/09/24 07:51:47;;;;;;;3.90;3.47;;;16.10;99.90;;;-141.84;64.55;20791.53;4983877;28;20215;-61
2023/09/24 07:54:17;;;;;;;3.90;3.50;;;16.20;99.90;;;-141.84;64.34;20801.69;4983339;28;20231;-61
2023/09/24 07:56:45;;;;;;;3.95;3.55;;;16.10;99.90;;;-141.84;64.27;20799.66;4978683;28;20227;-61
2023/09/24 07:59:14;;;;;;;5.78;3.28;;;16.20;99.90;;;-141.84;63.75;20799.66;4983338;28;20231;-60
2023/09/24 08:01:42;;;;;;;4.70;3.70;;;16.10;99.90;;;-141.84;63.94;20767.13;4983303;28;20230;-62
2023/09/24 08:04:12;;;;;;;3.92;3.28;;;16.20;99.90;;;-141.84;63.97;20820.00;4982953;28;20290;-61
2023/09/24 08:06:42;;;;;;;4.65;3.40;;;16.30;99.90;;;-141.84;64.22;20807.78;4976020;28;20773;-61
2023/09/24 08:09:10;;;;;;;4.80;4.28;;;16.40;99.90;;;-141.84;63.03;20903.34;4982754;28;20337;-61
2023/09/24 08:11:54;;;;;;;5.90;3.97;;;16.50;99.90;;;-141.84;62.92;20895.19;4980323;28;20223;-61
2023/09/24 08:14:24;;;;;;;5.25;4.72;;;16.50;99.90;;;-141.84;63.19;20852.50;4974923;28;20235;-61
2023/09/24 08:16:54;;;;;;;5.03;3.67;;;16.50;99.90;;;-141.84;63.88;20828.13;4973713;28;20702;-61
2023/09/24 08:19:30;;;;;;;4.53;3.80;;;16.50;99.90;;;-141.84;65.15;20738.66;4985287;28;20307;-61
2023/09/24 08:21:58;;;;;;;5.65;3.80;;;16.30;99.90;;;-141.84;65.72;20732.56;4982057;28;20301;-61
2023/09/24 08:24:27;;;;;;;5.50;3.85;;;16.20;99.90;;;-141.84;67.00;20677.69;4978865;28;20231;-61
2023/09/24 08:26:55;;;;;;;6.05;4.60;;;16.10;99.90;;;-141.84;66.28;20695.97;4985930;28;20318;-62
2023/09/24 08:29:24;;;;;;;4.82;4.05;;;16.00;99.90;;;-141.84;67.06;20673.63;4987190;28;20246;-61
2023/09/24 08:31:52;;;;;;;5.75;3.65;;;15.90;99.90;;;-141.84;67.67;20647.19;4982640;28;20314;-61
2023/09/24 08:34:20;;;;;;;5.78;4.32;;;15.90;99.90;;;-141.84;67.42;20689.88;4979029;28;20208;-61
2023/09/24 08:36:50;;;;;;;4.40;3.88;;;15.90;99.90;;;-141.84;67.30;20700.03;4987713;28;20222;-60
2023/09/24 08:39:18;;;;;;;6.68;4.20;;;16.00;99.90;;;-141.84;66.55;20740.69;4972431;28;20328;-61
2023/09/24 08:41:46;;;;;;;4.85;3.88;;;16.00;99.90;;;-141.84;66.17;20765.09;4966470;28;20231;-62
2023/09/24 08:44:18;;;;;;;4.97;4.40;;;16.20;99.90;;;-141.84;65.97;20773.22;4967252;28;20251;-61
2023/09/24 08:46:50;;;;;;;4.53;4.13;;;16.30;99.90;;;-141.84;65.68;20803.72;4963855;28;20239;-62
2023/09/24 08:49:19;;;;;;;4.35;4.03;;;16.30;99.90;;;-141.84;65.69;20785.44;4975832;28;20334;-62
2023/09/24 08:51:49;;;;;;;4.60;4.20;;;16.50;99.90;;;-141.84;65.39;20824.06;4987111;28;20270;-62
2023/09/24 08:54:18;;;;;;;4.18;3.55;;;16.60;99.90;;;-141.84;65.77;20799.66;4972818;28;20793;-61
2023/09/24 08:56:46;;;;;;;4.47;3.42;;;16.60;99.90;;;-141.84;65.33;20826.09;4982550;28;20237;-61
2023/09/24 08:59:15;;;;;;;5.30;3.67;;;16.70;99.90;;;-141.84;64.78;20862.69;4986199;28;20235;-62
2023/09/24 09:01:52;;;;;;;3.78;3.13;;;16.80;99.90;;;-141.84;62.67;20960.25;4985827;28;20227;-62
2023/09/24 09:04:21;;;;;;;3.63;3.30;;;17.10;99.90;;;-141.84;60.51;21106.63;4979616;28;20237;-61
2023/09/24 09:06:49;;;;;;;4.88;3.25;;;17.50;99.90;;;-141.84;60.02;21157.47;4987124;28;20215;-62
2023/09/24 09:09:26;;;;;;;5.28;2.47;;;17.90;99.90;;;-141.84;59.03;21187.97;4986247;28;20314;-62
2023/09/24 09:11:54;;;;;;;4.85;3.15;;;18.10;99.90;;;-141.84;57.73;21275.38;4985137;28;20235;-60
2023/09/24 09:14:35;;;;;;;3.38;2.88;;;18.30;99.90;;;-141.84;57.36;21242.84;4979005;28;20234;-64
2023/09/24 09:17:04;;;;;;;4.13;2.80;;;18.30;99.90;;;-141.84;58.47;21250.97;4985991;28;20235;-62
2023/09/24 09:19:49;;;;;;;4.13;2.70;;;18.30;99.90;;;-141.84;58.64;21212.34;4986084;28;20223;-63
2023/09/24 09:22:18;;;;;;;5.00;2.97;;;18.30;99.90;;;-141.84;58.66;21187.97;4986207;28;20254;-61
2023/09/24 09:24:50;;;;;;;2.95;2.63;;;18.20;99.90;;;-141.84;58.94;21175.75;4985796;28;20243;-63
2023/09/24 09:27:18;;;;;;;3.40;2.97;;;18.20;99.90;;;-141.84;59.22;21167.63;4985208;28;20278;-62
2023/09/24 09:29:46;;;;;;;3.72;2.88;;;18.00;99.90;;;-141.84;59.53;21102.56;4983962;28;20654;-62
2023/09/24 09:32:15;;;;;;;3.88;2.83;;;17.90;99.90;;;-141.84;59.78;21124.94;4983593;28;20501;-61
2023/09/24 09:34:53;;;;;;;3.35;2.90;;;17.90;99.90;;;-141.84;60.04;21082.25;4979279;28;20251;-61
2023/09/24 09:37:21;;;;;;;3.67;3.25;;;17.90;99.90;;;-141.84;60.75;21049.72;4985470;28;20218;-62
2023/09/24 09:39:52;;;;;;;4.68;3.40;;;17.70;99.90;;;-141.84;61.92;20994.81;4986217;28;20199;-62
2023/09/24 09:42:22;;;;;;;5.10;2.95;;;17.50;99.90;;;-141.84;63.00;20962.28;4981606;28;20270;-60
2023/09/24 09:44:52;;;;;;;3.67;2.83;;;17.50;99.90;;;-141.84;61.79;20976.53;4966549;28;20526;-64
2023/09/24 09:47:28;;;;;;;4.13;2.85;;;17.40;99.90;;;-141.84;62.21;21011.09;4972247;28;20259;-61
2023/09/24 09:49:59;;;;;;;4.15;3.30;;;17.30;99.90;;;-141.84;61.40;21019.22;4970909;28;20245;-63
2023/09/24 09:52:35;;;;;;;3.13;2.83;;;17.40;99.90;;;-141.84;60.00;21076.13;4969176;28;20242;-61
2023/09/24 09:55:07;;;;;;;6.78;2.53;;;17.60;99.90;;;-141.84;59.83;21112.72;4985339;28;20346;-65
2023/09/24 09:57:36;;;;;;;3.78;2.95;;;17.70;99.90;;;-141.84;59.27;21106.63;4977467;28;20727;-64
2023/09/24 10:00:09;;;;;;;3.70;2.35;;;17.80;99.90;;;-141.84;58.93;21139.16;4982922;28;20249;-66
2023/09/24 10:02:38;;;;;;;3.80;2.30;;;17.90;99.90;;;-141.84;58.11;21228.63;4977672;28;20239;-64
2023/09/24 10:05:09;;;;;;;2.08;1.90;;;18.10;99.90;;;-141.84;58.25;21137.13;4987896;28;20227;-65
2023/09/24 10:07:38;;;;;;;3.40;2.00;;;18.10;99.90;;;-141.84;58.56;21143.22;4984474;28;20225;-64
2023/09/24 10:10:42;;;;;;;2.88;2.47;;;18.00;99.90;;;-141.84;58.14;21210.31;4984582;28;20277;-65
2023/09/24 10:13:43;;;;;;;2.55;1.90;;;18.10;99.90;;;-141.84;55.83;21220.47;4984762;28;20586;-62
2023/09/24 10:16:31;;;;;;;2.92;1.73;;;18.30;99.90;;;-141.84;54.91;21358.75;4984694;28;20246;-62